Terminal Aerodrome Forecast
Issued by NWS

Home | Current Version | Previous Version | Text Only | Print | Product List | Glossary On
Versions: 1 2 3 4 5 6 7 8 9 10 11 12 13 14 15
000
FTUS45 KBOI 221444 AAA
TAFJER
TAF AMD
KJER 221444Z 2215/2312 18007KT 1SM -SN BR OVC015
     FM221700 22006KT 3SM -SHSN BR BKN025
     FM222100 25010KT P6SM SCT050
     FM230300 22008KT P6SM SCT050=

USA.gov is the U.S. government's official web portal to all federal, state and local government web resources and services.